createdAt,value
2018-05-31T00:00:26.726Z,1002.54
2018-05-31T00:01:26.655Z,1002.54
2018-05-31T00:02:26.613Z,1002.53
2018-05-31T00:03:26.575Z,1002.53
2018-05-31T00:04:26.527Z,1002.53
2018-05-31T00:05:26.507Z,1002.50
2018-05-31T00:06:26.453Z,1002.53
2018-05-31T00:07:26.961Z,1002.53
2018-05-31T00:08:26.351Z,1002.55
2018-05-31T00:09:26.310Z,1002.54
2018-05-31T00:10:26.288Z,1002.54
2018-05-31T00:11:26.221Z,1002.54
2018-05-31T00:12:26.176Z,1002.52
2018-05-31T00:13:26.132Z,1002.51
2018-05-31T00:14:26.089Z,1002.54
2018-05-31T00:15:26.080Z,1002.51
2018-05-31T00:16:26.001Z,1002.49
2018-05-31T00:17:25.957Z,1002.54
2018-05-31T00:18:25.912Z,1002.55
2018-05-31T00:19:25.869Z,1002.59
2018-05-31T00:20:25.827Z,1002.60
2018-05-31T00:21:25.808Z,1002.65
2018-05-31T00:22:25.738Z,1002.68
2018-05-31T00:23:25.688Z,1002.69
2018-05-31T00:24:25.650Z,1002.70
2018-05-31T00:25:25.602Z,1002.74
2018-05-31T00:26:25.586Z,1002.74
2018-05-31T00:27:25.514Z,1002.76
2018-05-31T00:28:25.474Z,1002.79
2018-05-31T00:29:25.424Z,1002.78
2018-05-31T00:30:25.384Z,1002.78
2018-05-31T00:31:25.362Z,1002.78
2018-05-31T00:32:25.298Z,1002.78
2018-05-31T00:33:25.250Z,1002.79
2018-05-31T00:34:25.217Z,1002.81
2018-05-31T00:35:25.160Z,1002.79
2018-05-31T00:36:25.145Z,1002.80
2018-05-31T00:37:25.074Z,1002.77
2018-05-31T00:38:25.033Z,1002.72
2018-05-31T00:39:24.986Z,1002.74
2018-05-31T00:40:24.944Z,1002.72
2018-05-31T00:41:24.920Z,1002.70
2018-05-31T00:42:24.853Z,1002.70
2018-05-31T00:43:24.807Z,1002.69
2018-05-31T00:44:24.769Z,1002.68
2018-05-31T00:45:24.716Z,1002.71
2018-05-31T00:46:24.701Z,1002.78
2018-05-31T00:47:24.630Z,1002.75
2018-05-31T00:48:24.589Z,1002.84
2018-05-31T00:49:24.543Z,1002.84
2018-05-31T00:50:24.502Z,1002.79
2018-05-31T00:51:24.488Z,1002.79
2018-05-31T00:52:24.412Z,1002.76
2018-05-31T00:53:24.363Z,1002.79
2018-05-31T00:54:24.329Z,1002.80
2018-05-31T00:55:24.279Z,1002.79
2018-05-31T00:56:24.263Z,1002.81
2018-05-31T00:57:24.189Z,1002.82
2018-05-31T00:58:24.146Z,1002.85
2018-05-31T00:59:24.099Z,1002.86
2018-05-31T01:00:24.058Z,1002.85
2018-05-31T01:01:24.034Z,1002.84
2018-05-31T01:02:23.970Z,1002.85
2018-05-31T01:03:23.924Z,1002.84
2018-05-31T01:04:23.878Z,1002.86
2018-05-31T01:05:23.839Z,1002.90
2018-05-31T01:06:23.820Z,1002.90
2018-05-31T01:07:23.749Z,1002.89
2018-05-31T01:08:23.705Z,1002.92
2018-05-31T01:09:23.659Z,1002.90
2018-05-31T01:10:23.615Z,1002.89
2018-05-31T01:11:23.593Z,1002.93
2018-05-31T01:12:23.530Z,1002.88
2018-05-31T01:13:23.483Z,1002.95
2018-05-31T01:14:23.442Z,1002.94
2018-05-31T01:15:23.397Z,1002.95
2018-05-31T01:16:23.378Z,1002.98
2018-05-31T01:17:23.309Z,1002.97
2018-05-31T01:18:23.263Z,1002.94
2018-05-31T01:19:23.220Z,1002.95
2018-05-31T01:20:23.176Z,1002.94
2018-05-31T01:21:23.157Z,1002.96
2018-05-31T01:22:23.092Z,1002.96
2018-05-31T01:23:23.050Z,1002.96
2018-05-31T01:24:23.005Z,1002.95
2018-05-31T01:25:22.956Z,1002.90
2018-05-31T01:26:22.936Z,1002.93
2018-05-31T01:27:22.869Z,1002.90
2018-05-31T01:28:22.826Z,1002.90
2018-05-31T01:29:22.784Z,1002.92
2018-05-31T01:30:22.744Z,1002.89
2018-05-31T01:31:22.717Z,1002.91
2018-05-31T01:32:22.652Z,1002.90
2018-05-31T01:33:22.605Z,1002.91
2018-05-31T01:34:22.562Z,1002.92
2018-05-31T01:35:22.517Z,1002.91
2018-05-31T01:36:22.498Z,1002.91
2018-05-31T01:37:22.440Z,1002.91
2018-05-31T01:38:22.386Z,1002.90
2018-05-31T01:39:22.343Z,1002.91
2018-05-31T01:40:22.300Z,1002.89
2018-05-31T01:41:22.279Z,1002.87
2018-05-31T01:42:22.212Z,1002.85
2018-05-31T01:43:22.173Z,1002.84
2018-05-31T01:44:22.125Z,1002.86
2018-05-31T01:45:22.081Z,1002.84
2018-05-31T01:46:22.059Z,1002.84
2018-05-31T01:47:21.996Z,1002.82
2018-05-31T01:48:21.952Z,1002.84
2018-05-31T01:49:21.908Z,1002.88
2018-05-31T01:50:21.866Z,1002.83
2018-05-31T01:51:21.843Z,1002.87
2018-05-31T01:52:21.777Z,1002.85
2018-05-31T01:53:21.732Z,1002.87
2018-05-31T01:54:21.692Z,1002.87
2018-05-31T01:55:21.647Z,1002.85
2018-05-31T01:56:21.622Z,1002.86
2018-05-31T01:57:21.555Z,1002.85
2018-05-31T01:58:21.511Z,1002.90
2018-05-31T01:59:21.468Z,1002.91
2018-05-31T02:00:21.427Z,1002.91
2018-05-31T02:01:21.405Z,1002.93
2018-05-31T02:02:21.340Z,1002.96
2018-05-31T02:03:21.297Z,1002.94
2018-05-31T02:04:21.247Z,1002.89
2018-05-31T02:05:21.204Z,1002.91
2018-05-31T02:06:21.187Z,1002.90
2018-05-31T02:07:21.120Z,1002.89
2018-05-31T02:08:21.072Z,1002.90
2018-05-31T02:09:21.032Z,1002.90
2018-05-31T02:10:20.986Z,1002.86
2018-05-31T02:11:20.969Z,1002.84
2018-05-31T02:12:20.924Z,1002.82
2018-05-31T02:13:20.854Z,1002.86
2018-05-31T02:14:20.810Z,1002.82
2018-05-31T02:15:20.768Z,1002.80
2018-05-31T02:16:20.720Z,1002.83
2018-05-31T02:17:20.704Z,1002.81
2018-05-31T02:18:20.636Z,1002.77
2018-05-31T02:19:20.590Z,1002.80
2018-05-31T02:20:20.543Z,1002.79
2018-05-31T02:21:20.503Z,1002.80
2018-05-31T02:22:20.479Z,1002.81
2018-05-31T02:23:20.415Z,1002.83
2018-05-31T02:24:20.373Z,1002.86
2018-05-31T02:25:20.326Z,1002.86
2018-05-31T02:26:20.284Z,1002.82
2018-05-31T02:27:20.263Z,1002.84
2018-05-31T02:28:20.192Z,1002.81
2018-05-31T02:29:20.149Z,1002.80
2018-05-31T02:30:20.104Z,1002.77
2018-05-31T02:31:20.065Z,1002.77
2018-05-31T02:32:20.039Z,1002.79
2018-05-31T02:33:19.972Z,1002.78
2018-05-31T02:34:19.929Z,1002.76
2018-05-31T02:35:19.884Z,1002.74
2018-05-31T02:36:19.837Z,1002.75
2018-05-31T02:37:19.822Z,1002.71
2018-05-31T02:38:19.752Z,1002.73
2018-05-31T02:39:19.707Z,1002.70
2018-05-31T02:40:19.662Z,1002.74
2018-05-31T02:41:19.619Z,1002.73
2018-05-31T02:42:19.608Z,1002.70
2018-05-31T02:43:19.530Z,1002.74
2018-05-31T02:44:19.486Z,1002.72
2018-05-31T02:45:19.443Z,1002.72
2018-05-31T02:46:19.396Z,1002.69
2018-05-31T02:47:19.379Z,1002.72
2018-05-31T02:48:19.309Z,1002.73
2018-05-31T02:49:19.265Z,1002.76
2018-05-31T02:50:19.217Z,1002.72
2018-05-31T02:51:19.176Z,1002.75
2018-05-31T02:52:19.154Z,1002.76
2018-05-31T02:53:19.094Z,1002.76
2018-05-31T02:54:19.046Z,1002.75
2018-05-31T02:55:19.000Z,1002.73
2018-05-31T02:56:18.954Z,1002.71
2018-05-31T02:57:18.939Z,1002.74
2018-05-31T02:58:18.873Z,1002.75
2018-05-31T02:59:18.819Z,1002.77
2018-05-31T03:00:18.783Z,1002.77
2018-05-31T03:01:18.736Z,1002.77
2018-05-31T03:02:18.715Z,1002.72
2018-05-31T03:03:18.638Z,1002.78
2018-05-31T03:04:18.603Z,1002.71
2018-05-31T03:05:18.552Z,1002.72
2018-05-31T03:06:18.509Z,1002.71
2018-05-31T03:07:18.487Z,1002.72
2018-05-31T03:08:18.422Z,1002.74
2018-05-31T03:09:18.373Z,1002.73
2018-05-31T03:10:18.330Z,1002.73
2018-05-31T03:11:18.286Z,1002.70
2018-05-31T03:12:18.263Z,1002.74
2018-05-31T03:13:18.196Z,1002.73
2018-05-31T03:14:18.154Z,1002.71
2018-05-31T03:15:18.108Z,1002.72
2018-05-31T03:16:18.066Z,1002.72
2018-05-31T03:17:18.044Z,1002.71
2018-05-31T03:18:17.973Z,1002.71
2018-05-31T03:19:17.928Z,1002.72
2018-05-31T03:20:17.885Z,1002.70
2018-05-31T03:21:17.843Z,1002.71
2018-05-31T03:22:17.819Z,1002.71
2018-05-31T03:23:17.752Z,1002.72
2018-05-31T03:24:17.713Z,1002.73
2018-05-31T03:25:17.664Z,1002.71
2018-05-31T03:26:17.616Z,1002.73
2018-05-31T03:27:17.593Z,1002.72
2018-05-31T03:28:17.533Z,1002.69
2018-05-31T03:29:17.484Z,1002.70
2018-05-31T03:30:17.442Z,1002.71
2018-05-31T03:31:17.395Z,1002.69
2018-05-31T03:32:17.378Z,1002.70
2018-05-31T03:33:17.306Z,1002.66
2018-05-31T03:34:17.263Z,1002.67
2018-05-31T03:35:17.219Z,1002.68
2018-05-31T03:36:17.174Z,1002.63
2018-05-31T03:37:17.148Z,1002.60
2018-05-31T03:38:17.085Z,1002.60
2018-05-31T03:39:17.039Z,1002.58
2018-05-31T03:40:16.996Z,1002.58
2018-05-31T03:41:16.955Z,1002.57
2018-05-31T03:42:16.926Z,1002.57
2018-05-31T03:43:16.864Z,1002.57
2018-05-31T03:44:16.859Z,1002.56
2018-05-31T03:45:16.771Z,1002.56
2018-05-31T03:46:16.725Z,1002.57
2018-05-31T03:47:16.705Z,1002.59
2018-05-31T03:48:16.636Z,1002.59
2018-05-31T03:49:16.592Z,1002.59
2018-05-31T03:50:16.547Z,1002.60
2018-05-31T03:51:16.505Z,1002.59
2018-05-31T03:52:16.483Z,1002.58
2018-05-31T03:53:16.413Z,1002.61
2018-05-31T03:54:16.370Z,1002.57
2018-05-31T03:55:16.327Z,1002.57
2018-05-31T03:56:16.281Z,1002.57
2018-05-31T03:57:16.261Z,1002.53
2018-05-31T03:58:16.193Z,1002.56
2018-05-31T03:59:16.148Z,1002.57
2018-05-31T04:00:16.120Z,1002.56
2018-05-31T04:01:16.059Z,1002.58
2018-05-31T04:02:16.043Z,1002.60
2018-05-31T04:03:15.970Z,1002.55
2018-05-31T04:04:15.930Z,1002.58
2018-05-31T04:05:15.879Z,1002.56
2018-05-31T04:06:15.844Z,1002.59
2018-05-31T04:07:15.815Z,1002.60
2018-05-31T04:08:15.753Z,1002.57
2018-05-31T04:09:15.702Z,1002.60
2018-05-31T04:10:15.660Z,1002.59
2018-05-31T04:11:15.617Z,1002.58
2018-05-31T04:12:15.596Z,1002.59
2018-05-31T04:13:15.525Z,1002.58
2018-05-31T04:14:15.485Z,1002.55
2018-05-31T04:15:15.437Z,1002.57
2018-05-31T04:16:15.395Z,1002.56
2018-05-31T04:17:15.372Z,1002.54
2018-05-31T04:18:15.307Z,1002.56
2018-05-31T04:19:15.261Z,1002.56
2018-05-31T04:20:15.218Z,1002.54
2018-05-31T04:21:15.174Z,1002.54
2018-05-31T04:22:15.155Z,1002.55
2018-05-31T04:23:15.089Z,1002.55
2018-05-31T04:24:15.043Z,1002.56
2018-05-31T04:25:14.997Z,1002.53
2018-05-31T04:26:14.954Z,1002.59
2018-05-31T04:27:14.933Z,1002.57
2018-05-31T04:28:14.859Z,1002.59
2018-05-31T04:29:14.831Z,1002.62
2018-05-31T04:30:14.776Z,1002.60
2018-05-31T04:31:14.732Z,1002.63
2018-05-31T04:32:14.719Z,1002.60
2018-05-31T04:33:14.644Z,1002.63
2018-05-31T04:34:14.601Z,1002.61
2018-05-31T04:35:14.556Z,1002.65
2018-05-31T04:36:14.517Z,1002.67
2018-05-31T04:37:14.491Z,1002.64
2018-05-31T04:38:14.428Z,1002.67
2018-05-31T04:39:14.381Z,1002.67
2018-05-31T04:40:14.343Z,1002.71
2018-05-31T04:41:14.295Z,1002.72
2018-05-31T04:42:14.276Z,1002.75
2018-05-31T04:43:14.211Z,1002.74
2018-05-31T04:44:14.168Z,1002.72
2018-05-31T04:45:14.123Z,1002.80
2018-05-31T04:46:14.077Z,1002.78
2018-05-31T04:47:14.068Z,1002.79
2018-05-31T04:48:13.999Z,1002.81
2018-05-31T04:49:13.950Z,1002.78
2018-05-31T04:50:13.910Z,1002.77
2018-05-31T04:51:13.868Z,1002.79
2018-05-31T04:52:13.857Z,1002.78
2018-05-31T04:53:13.775Z,1002.77
2018-05-31T04:54:13.733Z,1002.77
2018-05-31T04:55:13.690Z,1002.81
2018-05-31T04:56:13.647Z,1002.82
2018-05-31T04:57:13.614Z,1002.83
2018-05-31T04:58:13.589Z,1002.82
2018-05-31T04:59:13.521Z,1002.86
2018-05-31T05:00:13.481Z,1002.84
2018-05-31T05:01:13.435Z,1002.90
2018-05-31T05:02:13.391Z,1002.87
2018-05-31T05:03:13.375Z,1002.91
2018-05-31T05:04:13.309Z,1002.92
2018-05-31T05:05:13.263Z,1002.91
2018-05-31T05:06:13.227Z,1002.91
2018-05-31T05:07:13.177Z,1002.86
2018-05-31T05:08:13.162Z,1002.87
2018-05-31T05:09:13.096Z,1002.81
2018-05-31T05:10:13.053Z,1002.83
2018-05-31T05:11:13.023Z,1002.84
2018-05-31T05:12:12.970Z,1002.84
2018-05-31T05:13:12.948Z,1002.85
2018-05-31T05:14:12.888Z,1002.84
2018-05-31T05:15:12.844Z,1002.91
2018-05-31T05:16:12.800Z,1002.91
2018-05-31T05:17:12.764Z,1002.89
2018-05-31T05:18:12.738Z,1002.90
2018-05-31T05:19:12.671Z,1002.92
2018-05-31T05:20:12.630Z,1002.90
2018-05-31T05:21:12.589Z,1002.90
2018-05-31T05:22:12.548Z,1002.93
2018-05-31T05:23:12.529Z,1002.94
2018-05-31T05:24:12.466Z,1002.94
2018-05-31T05:25:12.422Z,1003.00
2018-05-31T05:26:12.378Z,1002.97
2018-05-31T05:27:12.338Z,1002.97
2018-05-31T05:28:12.323Z,1003.01
2018-05-31T05:29:12.254Z,1003.00
2018-05-31T05:30:12.211Z,1003.02
2018-05-31T05:31:12.172Z,1003.05
2018-05-31T05:32:12.132Z,1003.07
2018-05-31T05:33:12.121Z,1003.07
2018-05-31T05:34:12.047Z,1003.10
2018-05-31T05:35:12.008Z,1003.09
2018-05-31T05:36:11.969Z,1003.08
2018-05-31T05:37:11.925Z,1003.09
2018-05-31T05:38:11.906Z,1003.10
2018-05-31T05:39:11.843Z,1003.07
2018-05-31T05:40:11.801Z,1003.04
2018-05-31T05:41:11.759Z,1003.03
2018-05-31T05:42:11.717Z,1003.05
2018-05-31T05:43:11.700Z,1003.07
2018-05-31T05:44:11.636Z,1003.03
2018-05-31T05:45:11.592Z,1003.05
2018-05-31T05:46:11.554Z,1003.00
2018-05-31T05:47:11.511Z,1003.02
2018-05-31T05:48:11.499Z,1003.03
2018-05-31T05:49:11.430Z,1003.04
2018-05-31T05:50:11.443Z,1003.02
2018-05-31T05:51:11.346Z,1003.04
2018-05-31T05:52:11.305Z,1003.02
2018-05-31T05:53:11.291Z,1003.04
2018-05-31T05:54:11.223Z,1003.03
2018-05-31T05:55:11.185Z,1003.03
2018-05-31T05:56:11.142Z,1003.04
2018-05-31T05:57:11.107Z,1003.02
2018-05-31T05:58:11.086Z,1003.05
2018-05-31T05:59:11.019Z,1003.05
2018-05-31T06:00:10.979Z,1003.03
2018-05-31T06:01:10.939Z,1003.02
2018-05-31T06:02:10.898Z,1002.98
2018-05-31T06:03:10.881Z,1002.98
2018-05-31T06:04:10.837Z,1002.95
2018-05-31T06:05:10.776Z,1002.97
2018-05-31T06:06:10.735Z,1002.97
2018-05-31T06:07:10.693Z,1003.00
2018-05-31T06:08:10.676Z,1002.97
2018-05-31T06:09:10.611Z,1003.01
2018-05-31T06:10:10.650Z,1003.03
2018-05-31T06:11:10.564Z,1003.04
2018-05-31T06:12:10.490Z,1003.06
2018-05-31T06:13:10.474Z,1003.09
2018-05-31T06:14:10.412Z,1003.06
2018-05-31T06:15:10.370Z,1003.11
2018-05-31T06:16:10.329Z,1003.15
2018-05-31T06:17:10.290Z,1003.16
2018-05-31T06:18:10.279Z,1003.18
2018-05-31T06:19:10.209Z,1003.18
2018-05-31T06:20:10.171Z,1003.21
2018-05-31T06:21:10.130Z,1003.21
2018-05-31T06:22:10.090Z,1003.24
2018-05-31T06:23:10.071Z,1003.24
2018-05-31T06:24:10.016Z,1003.21
2018-05-31T06:25:09.969Z,1003.24
2018-05-31T06:26:09.948Z,1003.24
2018-05-31T06:27:09.890Z,1003.26
2018-05-31T06:28:09.876Z,1003.24
2018-05-31T06:29:09.811Z,1003.23
2018-05-31T06:30:09.767Z,1003.23
2018-05-31T06:31:09.730Z,1003.19
2018-05-31T06:32:09.694Z,1003.21
2018-05-31T06:33:09.676Z,1003.18
2018-05-31T06:34:09.608Z,1003.20
2018-05-31T06:35:09.570Z,1003.19
2018-05-31T06:36:09.529Z,1003.23
2018-05-31T06:37:09.511Z,1003.24
2018-05-31T06:38:09.472Z,1003.26
2018-05-31T06:39:09.408Z,1003.23
2018-05-31T06:40:09.370Z,1003.25
2018-05-31T06:41:09.336Z,1003.20
2018-05-31T06:42:09.289Z,1003.21
2018-05-31T06:43:09.272Z,1003.21
2018-05-31T06:44:09.211Z,1003.20
2018-05-31T06:45:09.170Z,1003.18
2018-05-31T06:46:09.135Z,1003.18
2018-05-31T06:47:09.092Z,1003.16
2018-05-31T06:48:09.078Z,1003.18
2018-05-31T06:49:09.012Z,1003.18
2018-05-31T06:50:08.974Z,1003.18
2018-05-31T06:51:08.935Z,1003.15
2018-05-31T06:52:08.898Z,1003.16
2018-05-31T06:53:08.881Z,1003.16
2018-05-31T06:54:08.815Z,1003.20
2018-05-31T06:55:08.782Z,1003.18
2018-05-31T06:56:08.741Z,1003.17
2018-05-31T06:57:08.697Z,1003.15
2018-05-31T06:58:08.680Z,1003.17
2018-05-31T06:59:08.620Z,1003.16
2018-05-31T07:00:08.580Z,1003.18
2018-05-31T07:01:08.537Z,1003.19
2018-05-31T07:02:08.504Z,1003.21
2018-05-31T07:03:08.487Z,1003.20
2018-05-31T07:04:08.425Z,1003.17
2018-05-31T07:05:08.385Z,1003.19
2018-05-31T07:06:08.345Z,1003.18
2018-05-31T07:07:08.314Z,1003.17
2018-05-31T07:08:08.296Z,1003.16
2018-05-31T07:09:08.231Z,1003.21
2018-05-31T07:10:08.193Z,1003.21
2018-05-31T07:11:08.156Z,1003.18
2018-05-31T07:12:08.111Z,1003.24
2018-05-31T07:13:08.101Z,1003.20
2018-05-31T07:14:08.038Z,1003.24
2018-05-31T07:15:07.998Z,1003.23
2018-05-31T07:16:07.966Z,1003.21
2018-05-31T07:17:07.918Z,1003.27
2018-05-31T07:18:07.902Z,1003.24
2018-05-31T07:19:07.840Z,1003.25
2018-05-31T07:20:07.803Z,1003.22
2018-05-31T07:21:07.761Z,1003.21
2018-05-31T07:22:07.729Z,1003.18
2018-05-31T07:23:07.711Z,1003.21
2018-05-31T07:24:07.649Z,1003.17
2018-05-31T07:25:07.609Z,1003.19
2018-05-31T07:26:07.575Z,1003.22
2018-05-31T07:27:07.549Z,1003.25
2018-05-31T07:28:07.517Z,1003.23
2018-05-31T07:29:07.460Z,1003.23
2018-05-31T07:30:07.414Z,1003.26
2018-05-31T07:31:07.379Z,1003.23
2018-05-31T07:32:07.338Z,1003.28
2018-05-31T07:33:07.325Z,1003.31
2018-05-31T07:34:07.259Z,1003.30
2018-05-31T07:35:07.223Z,1003.32
2018-05-31T07:36:07.186Z,1003.33
2018-05-31T07:37:07.142Z,1003.33
2018-05-31T07:38:07.134Z,1003.33
2018-05-31T07:39:07.069Z,1003.34
2018-05-31T07:40:07.033Z,1003.34
2018-05-31T07:41:06.990Z,1003.37
2018-05-31T07:42:06.952Z,1003.37
2018-05-31T07:43:06.936Z,1003.37
2018-05-31T07:44:06.875Z,1003.40
2018-05-31T07:45:06.838Z,1003.40
2018-05-31T07:46:06.801Z,1003.40
2018-05-31T07:47:06.761Z,1003.41
2018-05-31T07:48:06.720Z,1003.41
2018-05-31T07:49:06.703Z,1003.41
2018-05-31T07:50:06.644Z,1003.41
2018-05-31T07:51:06.609Z,1003.40
2018-05-31T07:52:06.569Z,1003.35
2018-05-31T07:53:06.529Z,1003.37
2018-05-31T07:54:06.515Z,1003.36
2018-05-31T07:55:06.454Z,1003.33
2018-05-31T07:56:06.414Z,1003.33
2018-05-31T07:57:06.375Z,1003.30
2018-05-31T07:58:06.359Z,1003.34
2018-05-31T07:59:06.321Z,1003.34
2018-05-31T08:00:06.262Z,1003.36
2018-05-31T08:01:06.227Z,1003.40
2018-05-31T08:02:06.187Z,1003.42
2018-05-31T08:03:06.145Z,1003.43
2018-05-31T08:04:06.142Z,1003.39
2018-05-31T08:05:06.068Z,1003.42
2018-05-31T08:06:06.028Z,1003.41
2018-05-31T08:07:05.995Z,1003.42
2018-05-31T08:08:05.961Z,1003.40
2018-05-31T08:09:05.940Z,1003.38
2018-05-31T08:10:05.884Z,1003.37
2018-05-31T08:11:05.845Z,1003.36
2018-05-31T08:12:05.811Z,1003.36
2018-05-31T08:13:05.772Z,1003.37
2018-05-31T08:14:05.757Z,1003.34
2018-05-31T08:15:05.696Z,1003.36
2018-05-31T08:16:05.657Z,1003.37
2018-05-31T08:17:05.615Z,1003.37
2018-05-31T08:18:05.577Z,1003.43
2018-05-31T08:19:05.571Z,1003.35
2018-05-31T08:20:05.503Z,1003.36
2018-05-31T08:21:05.465Z,1003.39
2018-05-31T08:22:05.427Z,1003.41
2018-05-31T08:23:05.390Z,1003.38
2018-05-31T08:24:05.373Z,1003.42
2018-05-31T08:25:05.310Z,1003.43
2018-05-31T08:26:05.278Z,1003.40
2018-05-31T08:27:05.237Z,1003.43
2018-05-31T08:28:05.201Z,1003.44
2018-05-31T08:29:05.180Z,1003.43
2018-05-31T08:30:05.126Z,1003.41
2018-05-31T08:31:05.090Z,1003.42
2018-05-31T08:32:05.048Z,1003.43
2018-05-31T08:33:05.005Z,1003.38
2018-05-31T08:34:04.994Z,1003.41
2018-05-31T08:35:04.937Z,1003.40
2018-05-31T08:36:04.895Z,1003.39
2018-05-31T08:37:04.864Z,1003.40
2018-05-31T08:38:04.820Z,1003.38
2018-05-31T08:39:04.811Z,1003.41
2018-05-31T08:40:04.746Z,1003.39
2018-05-31T08:41:04.706Z,1003.37
2018-05-31T08:42:04.667Z,1003.32
2018-05-31T08:43:04.633Z,1003.37
2018-05-31T08:44:04.668Z,1003.33
2018-05-31T08:45:04.553Z,1003.30
2018-05-31T08:46:04.518Z,1003.30
2018-05-31T08:47:04.480Z,1003.30
2018-05-31T08:48:04.441Z,1003.30
2018-05-31T08:49:04.425Z,1003.32
2018-05-31T08:50:04.369Z,1003.28
2018-05-31T08:51:04.353Z,1003.27
2018-05-31T08:52:04.292Z,1003.29
2018-05-31T08:53:04.257Z,1003.31
2018-05-31T08:54:04.248Z,1003.30
2018-05-31T08:55:04.180Z,1003.34
2018-05-31T08:56:04.140Z,1003.30
2018-05-31T08:57:04.107Z,1003.36
2018-05-31T08:58:04.067Z,1003.35
2018-05-31T08:59:04.059Z,1003.30
2018-05-31T09:00:03.994Z,1003.30
2018-05-31T09:01:03.952Z,1003.28
2018-05-31T09:02:03.916Z,1003.31
2018-05-31T09:03:03.876Z,1003.31
2018-05-31T09:04:03.863Z,1003.31
2018-05-31T09:05:03.803Z,1003.29
2018-05-31T09:06:03.763Z,1003.30
2018-05-31T09:07:03.727Z,1003.29
2018-05-31T09:08:03.687Z,1003.32
2018-05-31T09:09:03.678Z,1003.27
2018-05-31T09:10:03.618Z,1003.32
2018-05-31T09:11:03.578Z,1003.33
2018-05-31T09:12:03.537Z,1003.36
2018-05-31T09:13:03.504Z,1003.34
2018-05-31T09:14:03.490Z,1003.31
2018-05-31T09:15:03.427Z,1003.34
2018-05-31T09:16:03.384Z,1003.35
2018-05-31T09:17:03.349Z,1003.34
2018-05-31T09:18:03.313Z,1003.39
2018-05-31T09:19:03.310Z,1003.39
2018-05-31T09:20:03.241Z,1003.40
2018-05-31T09:21:03.199Z,1003.38
2018-05-31T09:22:03.175Z,1003.38
2018-05-31T09:23:03.126Z,1003.38
2018-05-31T09:24:03.117Z,1003.38
2018-05-31T09:25:03.055Z,1003.41
2018-05-31T09:26:03.013Z,1003.38
2018-05-31T09:27:02.974Z,1003.36
2018-05-31T09:28:02.937Z,1003.35
2018-05-31T09:29:02.924Z,1003.36
2018-05-31T09:30:02.865Z,1003.31
2018-05-31T09:31:02.827Z,1003.32
2018-05-31T09:32:02.791Z,1003.33
2018-05-31T09:33:02.749Z,1003.29
2018-05-31T09:34:02.736Z,1003.27
2018-05-31T09:35:02.746Z,1003.27
2018-05-31T09:36:02.641Z,1003.24
2018-05-31T09:37:02.605Z,1003.28
2018-05-31T09:38:02.571Z,1003.27
2018-05-31T09:39:02.554Z,1003.27
2018-05-31T09:40:02.492Z,1003.29
2018-05-31T09:41:02.471Z,1003.32
2018-05-31T09:42:02.416Z,1003.31
2018-05-31T09:43:02.393Z,1003.31
2018-05-31T09:44:02.370Z,1003.28
2018-05-31T09:45:02.306Z,1003.32
2018-05-31T09:46:02.280Z,1003.33
2018-05-31T09:47:02.232Z,1003.36
2018-05-31T09:48:02.195Z,1003.32
2018-05-31T09:49:02.175Z,1003.32
2018-05-31T09:50:02.118Z,1003.37
2018-05-31T09:51:02.085Z,1003.42
2018-05-31T09:52:02.041Z,1003.43
2018-05-31T09:53:02.008Z,1003.47
2018-05-31T09:54:01.993Z,1003.48
2018-05-31T09:55:01.953Z,1003.49
2018-05-31T09:56:01.895Z,1003.46
2018-05-31T09:57:01.860Z,1003.41
2018-05-31T09:58:01.815Z,1003.43
2018-05-31T09:59:01.805Z,1003.41
2018-05-31T10:00:01.749Z,1003.42
2018-05-31T10:01:01.707Z,1003.41
2018-05-31T10:02:01.670Z,1003.43
2018-05-31T10:03:01.634Z,1003.45
2018-05-31T10:04:01.618Z,1003.43
2018-05-31T10:05:01.556Z,1003.40
2018-05-31T10:06:01.520Z,1003.36
2018-05-31T10:07:01.484Z,1003.38
2018-05-31T10:08:01.445Z,1003.41
2018-05-31T10:09:01.435Z,1003.40
2018-05-31T10:10:01.370Z,1003.42
2018-05-31T10:11:01.341Z,1003.40
2018-05-31T10:12:01.297Z,1003.41
2018-05-31T10:13:01.256Z,1003.45
2018-05-31T10:14:01.241Z,1003.41
2018-05-31T10:15:01.179Z,1003.51
2018-05-31T10:16:01.147Z,1003.39
2018-05-31T10:17:01.112Z,1003.39
2018-05-31T10:18:01.075Z,1003.40
2018-05-31T10:19:01.053Z,1003.35
2018-05-31T10:20:00.996Z,1003.32
2018-05-31T10:21:00.952Z,1003.31
2018-05-31T10:22:00.927Z,1003.34
2018-05-31T10:23:00.881Z,1003.35
2018-05-31T10:24:00.864Z,1003.34
2018-05-31T10:25:00.801Z,1003.35
2018-05-31T10:26:00.768Z,1003.34
2018-05-31T10:27:00.732Z,1003.32
2018-05-31T10:28:00.694Z,1003.28
2018-05-31T10:29:00.694Z,1003.33
2018-05-31T10:30:00.617Z,1003.33
2018-05-31T10:31:00.576Z,1003.31
2018-05-31T10:32:00.542Z,1003.32
2018-05-31T10:33:00.502Z,1003.35
2018-05-31T10:34:00.463Z,1003.37
2018-05-31T10:35:00.455Z,1003.38
2018-05-31T10:36:00.390Z,1003.31
2018-05-31T10:37:00.350Z,1003.27
2018-05-31T10:38:00.315Z,1003.31
2018-05-31T10:39:00.280Z,1003.24
2018-05-31T10:40:00.269Z,1003.26
2018-05-31T10:41:00.206Z,1003.26
2018-05-31T10:42:00.167Z,1003.23
2018-05-31T10:43:00.698Z,1003.26
2018-05-31T10:44:00.098Z,1003.23
2018-05-31T10:45:00.081Z,1003.25
2018-05-31T10:46:00.024Z,1003.20
2018-05-31T10:46:59.985Z,1003.15
2018-05-31T10:47:59.944Z,1003.20
2018-05-31T10:48:59.901Z,1003.22
2018-05-31T10:49:59.890Z,1003.20
2018-05-31T10:50:59.832Z,1003.23
2018-05-31T10:51:59.796Z,1003.20
2018-05-31T10:52:59.754Z,1003.20
2018-05-31T10:53:59.716Z,1003.14
2018-05-31T10:54:59.704Z,1003.11
2018-05-31T10:56:01.056Z,1003.12
2018-05-31T10:56:59.607Z,1003.11
2018-05-31T10:57:59.567Z,1003.19
2018-05-31T10:58:59.533Z,1003.12
2018-05-31T10:59:59.513Z,1003.12
2018-05-31T11:00:59.452Z,1003.08
2018-05-31T11:01:59.422Z,1003.11
2018-05-31T11:02:59.377Z,1003.06
2018-05-31T11:03:59.337Z,1003.09
2018-05-31T11:04:59.323Z,1003.13
2018-05-31T11:05:59.267Z,1003.13
2018-05-31T11:06:59.228Z,1003.17
2018-05-31T11:07:59.190Z,1003.17
2018-05-31T11:08:59.150Z,1003.16
2018-05-31T11:09:59.141Z,1003.16
2018-05-31T11:10:59.079Z,1003.07
2018-05-31T11:11:59.049Z,1003.12
2018-05-31T11:12:59.009Z,1003.14
2018-05-31T11:13:58.971Z,1003.08
2018-05-31T11:14:59.006Z,1003.10
2018-05-31T11:15:58.895Z,1003.05
2018-05-31T11:16:58.854Z,1003.05
2018-05-31T11:17:58.820Z,1003.01
2018-05-31T11:18:58.784Z,1003.01
2018-05-31T11:19:58.768Z,1003.04
2018-05-31T11:20:58.707Z,1003.02
2018-05-31T11:21:58.668Z,1003.04
2018-05-31T11:22:58.634Z,1003.00
2018-05-31T11:23:58.598Z,1002.96
2018-05-31T11:24:58.585Z,1002.92
2018-05-31T11:25:58.524Z,1002.90
2018-05-31T11:26:58.488Z,1002.91
2018-05-31T11:27:58.448Z,1002.90
2018-05-31T11:28:58.413Z,1002.89
2018-05-31T11:29:58.424Z,1002.91
2018-05-31T11:30:58.339Z,1002.93
2018-05-31T11:31:58.303Z,1002.91
2018-05-31T11:32:58.271Z,1002.92
2018-05-31T11:33:58.228Z,1002.94
2018-05-31T11:34:58.216Z,1002.93
2018-05-31T11:35:58.156Z,1002.93
2018-05-31T11:36:58.116Z,1002.92
2018-05-31T11:37:58.082Z,1002.96
2018-05-31T11:38:58.050Z,1002.93
2018-05-31T11:39:58.029Z,1002.88
2018-05-31T11:40:57.967Z,1002.91
2018-05-31T11:41:57.931Z,1002.83
2018-05-31T11:42:57.897Z,1002.84
2018-05-31T11:43:57.860Z,1002.83
2018-05-31T11:44:57.844Z,1002.80
2018-05-31T11:45:57.787Z,1002.79
2018-05-31T11:46:57.747Z,1002.80
2018-05-31T11:47:57.715Z,1002.77
2018-05-31T11:48:57.677Z,1002.75
2018-05-31T11:49:57.663Z,1002.75
2018-05-31T11:50:57.606Z,1002.74
2018-05-31T11:51:57.563Z,1002.76
2018-05-31T11:52:57.532Z,1002.75
2018-05-31T11:53:57.493Z,1002.75
2018-05-31T11:54:57.481Z,1002.78
2018-05-31T11:55:57.418Z,1002.77
2018-05-31T11:56:57.382Z,1002.77
2018-05-31T11:57:57.347Z,1002.76
2018-05-31T11:58:57.308Z,1002.71
2018-05-31T11:59:57.299Z,1002.77
2018-05-31T12:00:57.236Z,1002.78
2018-05-31T12:01:57.195Z,1002.79
2018-05-31T12:02:57.167Z,1002.78
2018-05-31T12:03:57.129Z,1002.82
2018-05-31T12:04:57.111Z,1002.82